createdAt,value
2022-08-26T00:01:59.696Z,4.43
2022-08-26T00:04:31.508Z,4.80
2022-08-26T00:06:58.955Z,4.30
2022-08-26T00:09:26.921Z,4.80
2022-08-26T00:11:54.322Z,4.90
2022-08-26T00:14:27.176Z,4.37
2022-08-26T00:17:06.384Z,4.23
2022-08-26T00:19:36.066Z,4.53
2022-08-26T00:22:03.610Z,4.30
2022-08-26T00:24:38.950Z,4.93
2022-08-26T00:27:10.057Z,4.83
2022-08-26T00:29:42.029Z,4.73
2022-08-26T00:32:09.583Z,4.60
2022-08-26T00:34:41.139Z,4.90
2022-08-26T00:37:16.300Z,4.93
2022-08-26T00:39:46.779Z,4.90
2022-08-26T00:42:19.712Z,4.00
2022-08-26T00:44:51.447Z,4.90
2022-08-26T00:47:28.004Z,5.40
2022-08-26T00:50:00.840Z,4.60
2022-08-26T00:52:29.130Z,4.60
2022-08-26T00:55:04.976Z,4.63
2022-08-26T00:57:32.960Z,4.67
2022-08-26T01:00:07.688Z,5.10
2022-08-26T01:02:35.790Z,4.80
2022-08-26T01:05:08.003Z,4.67
2022-08-26T01:07:35.757Z,4.83
2022-08-26T01:10:07.900Z,4.57
2022-08-26T01:12:41.360Z,4.53
2022-08-26T01:15:18.245Z,5.43
2022-08-26T01:17:45.623Z,4.63
2022-08-26T01:20:26.245Z,5.27
2022-08-26T01:23:01.634Z,4.60
2022-08-26T01:25:33.998Z,5.03
2022-08-26T01:28:09.258Z,4.40
2022-08-26T01:30:40.882Z,4.87
2022-08-26T01:33:16.862Z,4.40
2022-08-26T01:35:45.219Z,4.27
2022-08-26T01:38:14.053Z,5.00
2022-08-26T01:40:44.400Z,4.97
2022-08-26T01:43:17.958Z,4.37
2022-08-26T01:45:47.131Z,5.40
2022-08-26T01:48:19.959Z,4.57
2022-08-26T01:50:54.115Z,4.40
2022-08-26T01:53:24.935Z,4.40
2022-08-26T01:55:58.032Z,5.80
2022-08-26T01:58:31.242Z,4.23
2022-08-26T02:00:59.794Z,5.77
2022-08-26T02:03:28.539Z,5.37
2022-08-26T02:05:59.520Z,4.83
2022-08-26T02:08:33.230Z,5.03
2022-08-26T02:11:00.434Z,5.17
2022-08-26T02:13:31.356Z,4.67
2022-08-26T02:16:04.082Z,4.80
2022-08-26T02:18:35.559Z,4.63
2022-08-26T02:21:03.748Z,4.50
2022-08-26T02:23:38.957Z,5.23
2022-08-26T02:26:12.074Z,4.40
2022-08-26T02:28:51.599Z,4.97
2022-08-26T02:31:19.212Z,4.57
2022-08-26T02:33:47.065Z,4.67
2022-08-26T02:36:20.330Z,4.40
2022-08-26T02:38:52.183Z,4.70
2022-08-26T02:41:19.321Z,4.77
2022-08-26T02:43:46.667Z,4.97
2022-08-26T02:46:27.616Z,4.60
2022-08-26T02:49:01.289Z,5.20
2022-08-26T02:51:28.733Z,5.33
2022-08-26T02:53:57.114Z,4.37
2022-08-26T02:56:24.574Z,4.40
2022-08-26T02:58:55.642Z,4.30
2022-08-26T03:01:27.130Z,5.37
2022-08-26T03:03:56.975Z,4.63
2022-08-26T03:06:25.254Z,4.40
2022-08-26T03:08:53.033Z,5.10
2022-08-26T03:11:25.533Z,4.73
2022-08-26T03:13:55.728Z,4.63
2022-08-26T03:16:23.154Z,5.13
2022-08-26T03:18:53.304Z,5.43
2022-08-26T03:21:21.384Z,5.10
2022-08-26T03:23:48.600Z,5.13
2022-08-26T03:26:17.708Z,5.03
2022-08-26T03:29:04.621Z,5.03
2022-08-26T03:31:31.934Z,5.30
2022-08-26T03:34:00.296Z,5.30
2022-08-26T03:36:31.034Z,4.60
2022-08-26T03:38:59.058Z,5.30
2022-08-26T03:41:26.396Z,5.13
2022-08-26T03:43:59.630Z,6.00
2022-08-26T03:46:29.150Z,5.00
2022-08-26T03:48:57.773Z,5.10
2022-08-26T03:51:26.156Z,5.00
2022-08-26T03:53:53.525Z,4.70
2022-08-26T03:56:24.062Z,4.83
2022-08-26T03:58:51.401Z,4.90
2022-08-26T04:01:21.370Z,5.13
2022-08-26T04:03:57.672Z,5.03
2022-08-26T04:06:33.139Z,4.83
2022-08-26T04:09:05.405Z,6.07
2022-08-26T04:11:34.365Z,5.33
2022-08-26T04:14:05.014Z,6.20
2022-08-26T04:16:34.102Z,6.07
2022-08-26T04:19:03.204Z,5.97
2022-08-26T04:21:30.465Z,5.70
2022-08-26T04:23:58.250Z,5.53
2022-08-26T04:26:26.379Z,5.47
2022-08-26T04:28:54.969Z,6.40
2022-08-26T04:31:22.477Z,5.87
2022-08-26T04:33:50.886Z,5.57
2022-08-26T04:36:20.746Z,6.30
2022-08-26T04:38:48.041Z,5.90
2022-08-26T04:41:17.027Z,5.83
2022-08-26T04:43:44.819Z,5.93
2022-08-26T04:46:17.918Z,5.70
2022-08-26T04:48:46.615Z,6.40
2022-08-26T04:51:15.226Z,6.90
2022-08-26T04:53:42.227Z,6.03
2022-08-26T04:56:09.344Z,6.73
2022-08-26T04:58:41.407Z,5.77
2022-08-26T05:01:08.697Z,6.20
2022-08-26T05:03:36.307Z,6.27
2022-08-26T05:06:05.306Z,6.13
2022-08-26T05:08:33.892Z,6.20
2022-08-26T05:11:05.954Z,6.90
2022-08-26T05:13:39.262Z,6.77
2022-08-26T05:16:09.743Z,6.83
2022-08-26T05:18:40.395Z,6.70
2022-08-26T05:21:19.939Z,6.43
2022-08-26T05:23:51.293Z,7.17
2022-08-26T05:26:23.051Z,7.67
2022-08-26T05:28:50.456Z,7.30
2022-08-26T05:31:25.439Z,7.77
2022-08-26T05:33:53.178Z,7.53
2022-08-26T05:36:23.879Z,8.40
2022-08-26T05:38:58.095Z,8.87
2022-08-26T05:41:34.647Z,9.17
2022-08-26T05:44:07.734Z,7.83
2022-08-26T05:46:37.036Z,8.60
2022-08-26T05:49:14.807Z,10.90
2022-08-26T05:51:47.696Z,9.53
2022-08-26T05:54:21.780Z,10.17
2022-08-26T05:56:50.710Z,11.00
2022-08-26T05:59:24.255Z,12.90
2022-08-26T06:01:55.099Z,14.50
2022-08-26T06:04:22.877Z,14.40
2022-08-26T06:06:52.310Z,14.37
2022-08-26T06:09:20.683Z,15.93
2022-08-26T06:11:48.902Z,15.97
2022-08-26T06:14:17.263Z,14.27
2022-08-26T06:16:45.673Z,14.20
2022-08-26T06:19:15.362Z,16.93
2022-08-26T06:21:45.755Z,15.10
2022-08-26T06:24:33.197Z,16.70
2022-08-26T06:27:06.163Z,15.93
2022-08-26T06:29:36.817Z,16.33
2022-08-26T06:32:05.616Z,17.00
2022-08-26T06:34:32.871Z,15.43
2022-08-26T06:37:06.397Z,16.20
2022-08-26T06:39:33.505Z,17.13
2022-08-26T06:42:03.270Z,18.40
2022-08-26T06:44:35.920Z,18.40
2022-08-26T06:47:03.072Z,16.53
2022-08-26T06:49:30.374Z,18.20
2022-08-26T06:51:58.248Z,18.00
2022-08-26T06:54:25.854Z,19.70
2022-08-26T06:56:53.656Z,21.00
2022-08-26T06:59:22.447Z,20.87
2022-08-26T07:01:49.975Z,21.57
2022-08-26T07:04:20.211Z,21.10
2022-08-26T07:06:52.845Z,22.10
2022-08-26T07:09:22.729Z,21.60
2022-08-26T07:11:51.440Z,19.60
2022-08-26T07:14:21.909Z,21.90
2022-08-26T07:16:49.642Z,19.80
2022-08-26T07:19:17.554Z,20.07
2022-08-26T07:21:56.021Z,19.57
2022-08-26T07:24:23.431Z,19.77
2022-08-26T07:26:50.546Z,20.47
2022-08-26T07:29:18.524Z,19.40
2022-08-26T07:31:47.723Z,18.50
2022-08-26T07:34:16.389Z,20.70
2022-08-26T07:36:44.985Z,18.63
2022-08-26T07:39:13.196Z,20.80
2022-08-26T07:41:40.211Z,20.07
2022-08-26T07:44:08.751Z,21.20
2022-08-26T07:46:37.284Z,20.83
2022-08-26T07:49:06.395Z,21.43
2022-08-26T07:51:34.638Z,23.00
2022-08-26T07:54:01.836Z,20.30
2022-08-26T07:56:29.401Z,21.43
2022-08-26T07:58:58.896Z,20.93
2022-08-26T08:01:27.420Z,23.93
2022-08-26T08:03:55.564Z,22.80
2022-08-26T08:06:27.393Z,22.50
2022-08-26T08:08:58.690Z,21.70
2022-08-26T08:11:31.091Z,22.63
2022-08-26T08:14:01.657Z,23.40
2022-08-26T08:16:32.237Z,21.77
2022-08-26T08:19:01.703Z,20.73
2022-08-26T08:21:32.163Z,25.03
2022-08-26T08:23:59.805Z,21.53
2022-08-26T08:26:27.374Z,21.80
2022-08-26T08:28:56.776Z,20.93
2022-08-26T08:34:21.702Z,22.57
2022-08-26T08:36:50.573Z,25.43
2022-08-26T08:39:20.832Z,23.67
2022-08-26T08:42:23.610Z,25.57
2022-08-26T08:44:56.057Z,24.40
2022-08-26T08:47:34.365Z,24.63
2022-08-26T08:50:12.242Z,24.87
2022-08-26T08:52:47.684Z,25.07
2022-08-26T08:55:18.167Z,24.37
2022-08-26T08:58:02.435Z,21.23
2022-08-26T09:00:39.763Z,20.20
2022-08-26T09:03:24.574Z,21.77
2022-08-26T09:05:53.469Z,24.87
2022-08-26T09:08:35.152Z,23.20
2022-08-26T09:11:04.410Z,23.67
2022-08-26T09:13:31.777Z,23.43
2022-08-26T09:16:15.785Z,24.97
2022-08-26T09:19:06.435Z,23.43
2022-08-26T09:21:42.087Z,24.07
2022-08-26T09:24:11.332Z,23.90
2022-08-26T09:26:48.026Z,23.93
2022-08-26T09:29:23.313Z,23.50
2022-08-26T09:31:52.178Z,22.87
2022-08-26T09:34:25.335Z,23.03
2022-08-26T09:36:55.194Z,22.20
2022-08-26T09:39:33.105Z,22.50
2022-08-26T09:42:09.577Z,23.80
2022-08-26T09:44:55.120Z,21.60
2022-08-26T09:47:28.223Z,21.87
2022-08-26T09:50:04.714Z,21.07
2022-08-26T09:52:37.300Z,21.30
2022-08-26T09:55:14.786Z,19.23
2022-08-26T09:57:49.456Z,21.37
2022-08-26T10:00:29.746Z,20.53
2022-08-26T10:03:10.865Z,20.40
2022-08-26T10:05:45.411Z,21.60
2022-08-26T10:08:25.194Z,21.20
2022-08-26T10:10:56.280Z,21.23
2022-08-26T10:13:29.640Z,20.87
2022-08-26T10:16:10.836Z,20.30
2022-08-26T10:18:50.888Z,18.87
2022-08-26T10:21:25.495Z,18.70
2022-08-26T10:23:57.775Z,19.87
2022-08-26T10:26:34.976Z,19.00
2022-08-26T10:29:10.376Z,18.13
2022-08-26T10:31:45.034Z,16.93
2022-08-26T10:34:17.752Z,17.00
2022-08-26T10:37:15.646Z,16.00
2022-08-26T10:39:49.140Z,17.13
2022-08-26T10:42:30.341Z,15.50
2022-08-26T10:45:07.598Z,15.90
2022-08-26T10:47:46.171Z,15.97
2022-08-26T10:50:13.519Z,15.77
2022-08-26T10:52:55.025Z,18.37
2022-08-26T10:55:38.841Z,19.70
2022-08-26T10:58:27.670Z,20.17
2022-08-26T11:01:23.271Z,19.43
2022-08-26T11:03:59.515Z,19.00
2022-08-26T11:06:31.299Z,22.40
2022-08-26T11:09:01.675Z,22.07
2022-08-26T11:11:46.835Z,22.40
2022-08-26T11:14:44.662Z,21.90
2022-08-26T11:17:57.284Z,25.27
2022-08-26T11:20:41.502Z,21.07
2022-08-26T11:23:45.912Z,22.80
2022-08-26T11:26:35.433Z,22.50
2022-08-26T11:29:12.331Z,22.40
2022-08-26T11:31:56.491Z,23.03
2022-08-26T11:34:56.567Z,21.17
2022-08-26T11:37:35.480Z,21.87
2022-08-26T11:40:09.721Z,21.80
2022-08-26T11:42:42.713Z,21.40
2022-08-26T11:45:19.736Z,20.37
2022-08-26T11:47:49.429Z,20.70
2022-08-26T11:50:21.454Z,19.80
2022-08-26T11:52:53.966Z,19.73
2022-08-26T11:55:23.244Z,19.03
2022-08-26T11:57:54.072Z,17.50
2022-08-26T12:00:24.345Z,20.57
2022-08-26T12:02:53.575Z,18.60
2022-08-26T12:05:31.115Z,16.47
2022-08-26T12:08:03.650Z,19.80
2022-08-26T12:10:34.510Z,19.37
2022-08-26T12:13:03.984Z,17.93
2022-08-26T12:15:34.068Z,20.37
2022-08-26T12:18:28.836Z,20.87
2022-08-26T12:20:59.926Z,20.93
2022-08-26T12:23:43.841Z,22.43
2022-08-26T12:26:22.558Z,21.80
2022-08-26T12:28:55.268Z,21.63
2022-08-26T12:31:30.231Z,21.63
2022-08-26T12:34:17.919Z,21.00
2022-08-26T12:36:50.209Z,20.23
2022-08-26T12:39:27.552Z,22.40
2022-08-26T12:41:57.261Z,18.80
2022-08-26T12:44:53.862Z,19.90
2022-08-26T12:47:35.179Z,20.23
2022-08-26T12:50:19.834Z,21.43
2022-08-26T12:52:59.190Z,19.10
2022-08-26T12:55:38.116Z,18.63
2022-08-26T12:58:26.969Z,20.50
2022-08-26T13:00:55.767Z,19.80
2022-08-26T13:03:44.864Z,21.37
2022-08-26T13:06:27.953Z,22.33
2022-08-26T13:08:57.997Z,22.83
2022-08-26T13:11:31.864Z,22.67
2022-08-26T13:14:06.794Z,20.30
2022-08-26T13:16:35.097Z,21.27
2022-08-26T13:19:06.171Z,21.93
2022-08-26T13:21:44.810Z,18.60
2022-08-26T13:24:18.925Z,18.80
2022-08-26T13:26:49.095Z,18.87
2022-08-26T13:29:17.351Z,19.10
2022-08-26T13:31:46.528Z,18.57
2022-08-26T13:34:19.514Z,19.23
2022-08-26T13:36:49.629Z,19.07
2022-08-26T13:39:17.530Z,18.50
2022-08-26T13:41:44.679Z,18.13
2022-08-26T13:44:14.819Z,18.10
2022-08-26T13:46:42.078Z,19.07
2022-08-26T13:49:10.483Z,18.67
2022-08-26T13:51:38.109Z,19.20
2022-08-26T13:54:17.328Z,18.13
2022-08-26T13:56:47.218Z,18.53
2022-08-26T13:59:14.466Z,18.57
2022-08-26T14:01:41.754Z,17.90
2022-08-26T14:04:08.894Z,18.83
2022-08-26T14:06:36.253Z,18.37
2022-08-26T14:09:03.752Z,19.07
2022-08-26T14:11:41.153Z,18.77
2022-08-26T14:14:19.219Z,19.37
2022-08-26T14:16:58.798Z,18.73
2022-08-26T14:19:30.776Z,18.80
2022-08-26T14:22:00.951Z,19.70
2022-08-26T14:24:28.911Z,20.30
2022-08-26T14:26:57.473Z,20.80
2022-08-26T14:29:24.632Z,20.57
2022-08-26T14:31:51.674Z,21.10
2022-08-26T14:34:18.824Z,21.80
2022-08-26T14:36:45.788Z,21.13
2022-08-26T14:39:14.320Z,21.90
2022-08-26T14:41:45.881Z,19.90
2022-08-26T14:44:27.508Z,21.10
2022-08-26T14:47:00.041Z,19.00
2022-08-26T14:49:27.478Z,20.57
2022-08-26T14:51:55.006Z,20.10
2022-08-26T14:54:22.185Z,20.77
2022-08-26T14:56:56.014Z,20.93
2022-08-26T14:59:29.069Z,18.67
2022-08-26T15:01:57.281Z,17.50
2022-08-26T15:04:25.422Z,17.47
2022-08-26T15:06:53.799Z,18.63
2022-08-26T15:09:21.478Z,17.63
2022-08-26T15:11:48.623Z,18.47
2022-08-26T15:14:19.500Z,18.50
2022-08-26T15:16:50.156Z,16.77
2022-08-26T15:19:17.967Z,15.30
2022-08-26T15:21:46.878Z,15.60
2022-08-26T15:24:15.572Z,16.07
2022-08-26T15:26:43.602Z,14.83
2022-08-26T15:29:14.925Z,15.97
2022-08-26T15:31:42.983Z,15.50
2022-08-26T15:34:16.506Z,14.40
2022-08-26T15:36:46.422Z,13.83
2022-08-26T15:39:17.148Z,13.30
2022-08-26T15:41:44.866Z,13.17
2022-08-26T15:44:14.165Z,12.53
2022-08-26T15:46:42.002Z,12.83
2022-08-26T15:49:09.303Z,11.13
2022-08-26T15:51:49.180Z,11.23
2022-08-26T15:54:19.643Z,11.53
2022-08-26T15:56:50.467Z,11.93
2022-08-26T15:59:18.891Z,11.00
2022-08-26T16:01:47.018Z,12.10
2022-08-26T16:04:18.620Z,11.90
2022-08-26T16:06:52.174Z,13.10
2022-08-26T16:09:20.631Z,13.20
2022-08-26T16:11:47.778Z,14.50
2022-08-26T16:14:15.277Z,13.97
2022-08-26T16:16:42.382Z,13.60
2022-08-26T16:19:12.189Z,14.13
2022-08-26T16:21:40.479Z,12.93
2022-08-26T16:24:09.804Z,13.37
2022-08-26T16:26:41.667Z,12.70
2022-08-26T16:29:17.765Z,13.10
2022-08-26T16:31:44.833Z,12.03
2022-08-26T16:34:12.025Z,13.30
2022-08-26T16:36:42.121Z,12.90
2022-08-26T16:39:11.350Z,13.20
2022-08-26T16:41:38.584Z,13.03
2022-08-26T16:44:07.498Z,13.33
2022-08-26T16:46:39.431Z,13.30
2022-08-26T16:49:06.805Z,13.07
2022-08-26T16:51:38.007Z,12.70
2022-08-26T16:54:10.017Z,13.90
2022-08-26T16:56:37.681Z,12.60
2022-08-26T16:59:07.061Z,12.53
2022-08-26T17:01:34.565Z,13.43
2022-08-26T17:04:01.798Z,12.97
2022-08-26T17:06:29.837Z,11.83
2022-08-26T17:08:56.868Z,11.50
2022-08-26T17:11:25.401Z,12.30
2022-08-26T17:13:55.333Z,13.57
2022-08-26T17:16:26.414Z,13.10
2022-08-26T17:18:55.893Z,13.40
2022-08-26T17:21:23.248Z,13.10
2022-08-26T17:23:51.661Z,14.30
2022-08-26T17:26:19.107Z,13.80
2022-08-26T17:28:50.384Z,14.40
2022-08-26T17:31:17.842Z,15.83
2022-08-26T17:33:48.843Z,15.37
2022-08-26T17:36:17.607Z,16.63
2022-08-26T17:38:45.039Z,17.17
2022-08-26T17:41:16.458Z,18.07
2022-08-26T17:43:51.234Z,16.20
2022-08-26T17:46:18.361Z,17.73
2022-08-26T17:48:46.950Z,16.50
2022-08-26T17:51:16.999Z,17.40
2022-08-26T17:53:48.048Z,17.07
2022-08-26T17:56:23.776Z,18.60
2022-08-26T17:58:54.242Z,17.53
2022-08-26T18:01:26.079Z,17.37
2022-08-26T18:04:00.282Z,17.47
2022-08-26T18:06:28.767Z,18.53
2022-08-26T18:08:55.962Z,17.90
2022-08-26T18:11:24.382Z,18.70
2022-08-26T18:13:53.546Z,17.57
2022-08-26T18:16:20.737Z,17.30
2022-08-26T18:18:53.475Z,18.67
2022-08-26T18:21:24.480Z,17.93
2022-08-26T18:23:53.189Z,17.73
2022-08-26T18:26:26.915Z,17.37
2022-08-26T18:28:56.020Z,17.67
2022-08-26T18:31:26.713Z,16.87
2022-08-26T18:33:59.781Z,16.67
2022-08-26T18:36:29.978Z,17.93
2022-08-26T18:38:59.929Z,17.27
2022-08-26T18:41:30.392Z,18.27
2022-08-26T18:43:59.918Z,15.30
2022-08-26T18:46:28.294Z,15.60
2022-08-26T18:48:56.792Z,15.80
2022-08-26T18:51:27.244Z,15.00
2022-08-26T18:53:54.634Z,15.33
2022-08-26T18:56:22.202Z,15.90
2022-08-26T18:58:49.650Z,16.47
2022-08-26T19:01:25.455Z,14.70
2022-08-26T19:03:55.389Z,13.27
2022-08-26T19:06:24.411Z,13.40
2022-08-26T19:08:52.139Z,13.70
2022-08-26T19:11:31.985Z,13.63
2022-08-26T19:14:00.181Z,14.10
2022-08-26T19:16:30.375Z,13.13
2022-08-26T19:18:59.007Z,14.70
2022-08-26T19:21:26.325Z,12.00
2022-08-26T19:23:57.939Z,13.13
2022-08-26T19:26:25.381Z,12.30
2022-08-26T19:28:52.952Z,10.60
2022-08-26T19:31:20.195Z,10.80
2022-08-26T19:33:49.244Z,11.47
2022-08-26T19:36:19.126Z,13.17
2022-08-26T19:38:46.819Z,10.47
2022-08-26T19:41:15.638Z,10.40
2022-08-26T19:43:42.986Z,10.07
2022-08-26T19:46:20.256Z,10.57
2022-08-26T19:48:54.099Z,11.27
2022-08-26T19:51:25.935Z,14.00
2022-08-26T19:53:56.221Z,13.73
2022-08-26T19:56:23.684Z,10.20
2022-08-26T19:58:50.934Z,10.03
2022-08-26T20:01:19.529Z,10.17
2022-08-26T20:03:48.395Z,15.50
2022-08-26T20:06:16.774Z,11.37
2022-08-26T20:08:45.008Z,11.60
2022-08-26T20:11:15.237Z,11.23
2022-08-26T20:13:43.654Z,12.47
2022-08-26T20:16:12.206Z,11.10
2022-08-26T20:18:59.374Z,11.50
2022-08-26T20:21:31.789Z,10.50
2022-08-26T20:24:04.941Z,10.40
2022-08-26T20:26:42.480Z,12.30
2022-08-26T20:29:13.128Z,10.87
2022-08-26T20:31:40.848Z,12.27
2022-08-26T20:34:08.361Z,11.20
2022-08-26T20:36:40.769Z,11.13
2022-08-26T20:39:09.025Z,10.60
2022-08-26T20:41:36.179Z,9.07
2022-08-26T20:44:04.115Z,10.20
2022-08-26T20:46:31.564Z,10.67
2022-08-26T20:48:58.905Z,10.20
2022-08-26T20:51:26.966Z,9.70
2022-08-26T20:53:55.837Z,10.40
2022-08-26T20:56:26.370Z,13.70
2022-08-26T20:58:56.212Z,10.17
2022-08-26T21:01:30.583Z,11.50
2022-08-26T21:04:00.125Z,9.93
2022-08-26T21:06:30.998Z,9.53
2022-08-26T21:09:01.496Z,9.23
2022-08-26T21:11:29.227Z,9.97
2022-08-26T21:14:06.938Z,10.67
2022-08-26T21:16:44.777Z,9.83
2022-08-26T21:19:15.644Z,9.13
2022-08-26T21:21:42.744Z,9.90
2022-08-26T21:24:12.279Z,9.50
2022-08-26T21:26:42.571Z,10.73
2022-08-26T21:29:15.994Z,9.70
2022-08-26T21:31:46.387Z,9.10
2022-08-26T21:34:14.522Z,10.80
2022-08-26T21:36:44.623Z,9.20
2022-08-26T21:39:13.891Z,9.73
2022-08-26T21:41:42.797Z,9.07
2022-08-26T21:44:15.297Z,9.13
2022-08-26T21:46:44.308Z,10.87
2022-08-26T21:49:17.772Z,9.50
2022-08-26T21:51:48.711Z,9.77
2022-08-26T21:54:18.414Z,9.97
2022-08-26T21:56:47.257Z,9.03
2022-08-26T21:59:16.613Z,10.90
2022-08-26T22:01:45.965Z,9.57
2022-08-26T22:04:18.852Z,9.03
2022-08-26T22:06:48.658Z,9.37
2022-08-26T22:09:20.764Z,9.13
2022-08-26T22:11:51.179Z,9.00
2022-08-26T22:14:30.356Z,10.00
2022-08-26T22:16:59.376Z,9.00
2022-08-26T22:19:26.784Z,9.60
2022-08-26T22:21:55.338Z,9.60
2022-08-26T22:24:27.003Z,8.90
2022-08-26T22:26:55.012Z,8.40
2022-08-26T22:29:22.432Z,9.87
2022-08-26T22:31:49.465Z,9.37
2022-08-26T22:34:21.162Z,9.97
2022-08-26T22:36:50.021Z,9.73
2022-08-26T22:39:21.982Z,9.30
2022-08-26T22:41:55.015Z,9.80
2022-08-26T22:44:22.594Z,9.33
2022-08-26T22:46:54.005Z,9.50
2022-08-26T22:49:21.836Z,8.73
2022-08-26T22:51:49.896Z,8.63
2022-08-26T22:54:17.738Z,8.67
2022-08-26T22:56:45.417Z,9.00
2022-08-26T22:59:13.995Z,9.60
2022-08-26T23:01:43.436Z,9.90
2022-08-26T23:04:14.511Z,9.10
2022-08-26T23:06:43.507Z,9.43
2022-08-26T23:09:17.952Z,9.57
2022-08-26T23:11:46.283Z,8.60
2022-08-26T23:14:15.497Z,9.17
2022-08-26T23:16:42.748Z,9.43
2022-08-26T23:19:12.771Z,8.63
2022-08-26T23:21:40.473Z,8.17
2022-08-26T23:24:11.979Z,8.57
2022-08-26T23:26:40.939Z,8.47
2022-08-26T23:29:10.934Z,9.10
2022-08-26T23:31:41.443Z,9.63
2022-08-26T23:34:30.349Z,9.30
2022-08-26T23:37:06.150Z,9.03
2022-08-26T23:39:35.078Z,8.67
2022-08-26T23:42:05.974Z,10.10
2022-08-26T23:44:36.283Z,8.63
2022-08-26T23:47:06.348Z,9.60
2022-08-26T23:49:34.908Z,9.40
2022-08-26T23:52:23.952Z,9.43
2022-08-26T23:54:52.430Z,10.90
2022-08-26T23:57:22.710Z,9.40
2022-08-26T23:59:50.514Z,9.00
